createdAt,value
2018-02-07T00:23:17.133Z,80.10
2018-02-07T00:25:47.423Z,79.80
2018-02-07T00:28:17.357Z,79.80
2018-02-07T00:30:49.518Z,79.60
2018-02-07T00:33:19.588Z,79.60
2018-02-07T00:35:50.796Z,79.30
2018-02-07T00:38:20.715Z,78.00
2018-02-07T00:40:50.792Z,81.10
2018-02-07T00:43:20.866Z,79.40
2018-02-07T00:45:50.787Z,79.60
2018-02-07T00:48:21.857Z,80.00
2018-02-07T00:50:51.629Z,79.90
2018-02-07T00:53:21.781Z,79.50
2018-02-07T00:55:52.471Z,80.10
2018-02-07T00:58:22.739Z,79.30
2018-02-07T01:00:54.074Z,79.00
2018-02-07T01:03:23.864Z,79.00
2018-02-07T01:05:53.624Z,78.70
2018-02-07T01:08:24.372Z,78.30
2018-02-07T01:10:54.405Z,77.70
2018-02-07T01:13:25.303Z,78.30
2018-02-07T01:15:55.143Z,78.50
2018-02-07T01:18:25.837Z,78.00
2018-02-07T01:20:56.548Z,78.20
2018-02-07T01:23:26.459Z,78.20
2018-02-07T01:25:56.337Z,78.70
2018-02-07T01:28:26.585Z,78.70
2018-02-07T01:30:56.424Z,79.30
2018-02-07T01:33:27.470Z,79.10
2018-02-07T01:35:59.354Z,79.10
2018-02-07T01:38:30.077Z,79.20
2018-02-07T01:40:59.882Z,79.10
2018-02-07T01:43:35.925Z,79.30
2018-02-07T01:46:05.687Z,79.30
2018-02-07T01:48:35.810Z,79.20
2018-02-07T01:51:05.743Z,79.10
2018-02-07T01:53:37.457Z,78.90
2018-02-07T01:56:07.372Z,78.50
2018-02-07T01:58:37.385Z,78.80
2018-02-07T02:01:10.957Z,78.70
2018-02-07T02:03:40.866Z,78.70
2018-02-07T02:06:10.748Z,79.60
2018-02-07T02:08:40.760Z,79.40
2018-02-07T02:11:10.628Z,79.60
2018-02-07T02:13:41.246Z,79.50
2018-02-07T02:16:12.024Z,80.60
2018-02-07T02:18:42.107Z,79.10
2018-02-07T02:21:13.060Z,79.40
2018-02-07T02:23:43.718Z,80.30
2018-02-07T02:26:13.723Z,80.30
2018-02-07T02:28:43.871Z,80.60
2018-02-07T02:31:13.835Z,80.70
2018-02-07T02:33:44.393Z,81.00
2018-02-07T02:36:49.160Z,81.40
2018-02-07T02:39:19.157Z,80.90
2018-02-07T02:41:49.622Z,80.10
2018-02-07T02:44:19.495Z,80.70
2018-02-07T02:46:49.564Z,80.60
2018-02-07T02:49:19.766Z,80.60
2018-02-07T02:51:51.519Z,80.20
2018-02-07T02:54:22.193Z,80.10
2018-02-07T02:56:53.351Z,80.60
2018-02-07T02:59:23.818Z,80.50
2018-02-07T03:01:53.930Z,81.00
2018-02-07T03:04:24.115Z,81.00
2018-02-07T03:06:55.390Z,81.10
2018-02-07T03:09:26.688Z,81.10
2018-02-07T03:11:59.132Z,81.10
2018-02-07T03:14:29.754Z,80.00
2018-02-07T03:16:59.854Z,80.60
2018-02-07T03:19:30.824Z,80.30
2018-02-07T03:22:00.707Z,79.80
2018-02-07T03:24:31.656Z,79.40
2018-02-07T03:27:01.560Z,79.20
2018-02-07T03:29:32.221Z,79.00
2018-02-07T03:32:03.136Z,78.90
2018-02-07T03:34:33.394Z,79.20
2018-02-07T03:37:03.772Z,79.60
2018-02-07T03:42:15.139Z,77.80
2018-02-07T03:44:46.135Z,77.40
2018-02-07T03:47:16.102Z,76.80
2018-02-07T03:49:46.477Z,78.90
2018-02-07T03:52:16.801Z,77.60
2018-02-07T03:54:46.977Z,77.30
2018-02-07T03:57:17.733Z,76.70
2018-02-07T03:59:47.849Z,76.70
2018-02-07T04:02:17.900Z,77.00
2018-02-07T04:04:47.801Z,77.30
2018-02-07T04:07:18.118Z,77.20
2018-02-07T04:09:48.133Z,78.50
2018-02-07T04:12:18.049Z,76.30
2018-02-07T04:14:47.888Z,77.10
2018-02-07T04:17:18.236Z,76.90
2018-02-07T04:19:48.254Z,75.80
2018-02-07T04:22:18.100Z,75.30
2018-02-07T04:24:48.747Z,75.90
2018-02-07T04:27:20.434Z,76.00
2018-02-07T04:29:50.484Z,76.20
2018-02-07T04:32:21.647Z,76.50
2018-02-07T04:34:52.458Z,76.50
2018-02-07T04:37:23.926Z,76.50
2018-02-07T04:39:54.645Z,76.70
2018-02-07T04:42:24.684Z,76.70
2018-02-07T04:44:55.690Z,76.80
2018-02-07T04:47:25.626Z,76.80
2018-02-07T04:49:56.278Z,75.50
2018-02-07T04:52:26.418Z,75.60
2018-02-07T04:54:56.209Z,75.40
2018-02-07T04:57:28.907Z,75.40
2018-02-07T04:59:58.876Z,75.40
2018-02-07T05:02:29.387Z,75.30
2018-02-07T05:05:00.412Z,75.40
2018-02-07T05:07:30.589Z,76.10
2018-02-07T05:10:00.601Z,75.60
2018-02-07T05:12:31.876Z,74.90
2018-02-07T05:15:01.700Z,74.80
2018-02-07T05:17:31.641Z,75.80
2018-02-07T05:20:03.229Z,76.00
2018-02-07T05:22:33.385Z,76.40
2018-02-07T05:25:04.868Z,75.60
2018-02-07T05:27:35.201Z,75.30
2018-02-07T05:30:05.771Z,75.50
2018-02-07T05:32:35.952Z,75.60
2018-02-07T05:35:06.987Z,75.80
2018-02-07T05:37:37.064Z,74.30
2018-02-07T05:40:07.891Z,74.90
2018-02-07T05:42:39.077Z,74.20
2018-02-07T05:45:11.580Z,74.80
2018-02-07T05:47:41.400Z,74.80
2018-02-07T05:50:12.456Z,74.30
2018-02-07T05:52:43.063Z,74.30
2018-02-07T05:55:13.316Z,74.40
2018-02-07T05:57:45.757Z,75.40
2018-02-07T06:00:18.936Z,75.10
2018-02-07T06:02:48.956Z,75.10
2018-02-07T06:05:18.789Z,75.00
2018-02-07T06:07:50.070Z,75.40
2018-02-07T06:10:25.576Z,75.30
2018-02-07T06:12:55.621Z,75.80
2018-02-07T06:15:29.662Z,74.90
2018-02-07T06:18:00.265Z,75.40
2018-02-07T06:20:30.437Z,75.20
2018-02-07T06:23:01.182Z,75.60
2018-02-07T06:25:31.781Z,75.50
2018-02-07T06:28:03.131Z,75.40
2018-02-07T06:30:34.721Z,75.60
2018-02-07T06:33:05.594Z,76.40
2018-02-07T06:35:35.608Z,76.40
2018-02-07T06:38:07.148Z,76.90
2018-02-07T06:40:37.990Z,76.00
2018-02-07T06:43:09.990Z,76.00
2018-02-07T06:45:43.826Z,75.70
2018-02-07T06:48:14.096Z,75.40
2018-02-07T06:50:44.804Z,74.80
2018-02-07T06:53:18.320Z,74.10
2018-02-07T06:55:54.482Z,74.70
2018-02-07T06:58:29.374Z,73.40
2018-02-07T07:01:01.593Z,73.40
2018-02-07T07:03:35.657Z,73.70
2018-02-07T07:06:07.483Z,74.30
2018-02-07T07:08:37.872Z,74.70
2018-02-07T07:11:08.858Z,75.40
2018-02-07T07:13:43.540Z,75.30
2018-02-07T07:16:16.461Z,75.80
2018-02-07T07:18:46.687Z,75.70
2018-02-07T07:21:19.143Z,75.70
2018-02-07T07:23:51.330Z,75.30
2018-02-07T07:26:23.838Z,75.80
2018-02-07T07:28:58.033Z,75.50
2018-02-07T07:31:30.606Z,75.10
2018-02-07T07:34:02.742Z,75.00
2018-02-07T07:36:34.731Z,75.30
2018-02-07T07:39:06.776Z,75.50
2018-02-07T07:41:37.279Z,74.60
2018-02-07T07:44:12.812Z,74.40
2018-02-07T07:46:43.282Z,74.40
2018-02-07T07:49:54.442Z,74.50
2018-02-07T07:52:37.292Z,75.30
2018-02-07T07:55:09.441Z,74.90
2018-02-07T07:57:44.405Z,74.90
2018-02-07T08:00:19.059Z,74.80
2018-02-07T08:02:49.685Z,74.40
2018-02-07T08:05:21.430Z,74.20
2018-02-07T08:07:56.680Z,73.70
2018-02-07T08:10:30.547Z,73.80
2018-02-07T08:15:50.919Z,74.10
2018-02-07T08:18:29.574Z,74.60
2018-02-07T08:21:01.810Z,74.60
2018-02-07T08:23:55.911Z,75.40
2018-02-07T08:26:27.261Z,75.40
2018-02-07T08:28:59.478Z,74.70
2018-02-07T08:32:11.917Z,74.70
2018-02-07T08:38:46.087Z,74.90
2018-02-07T08:41:43.698Z,75.00
2018-02-07T08:47:11.311Z,74.40
2018-02-07T08:49:42.456Z,75.00
2018-02-07T08:52:13.539Z,73.60
2018-02-07T08:54:47.971Z,73.60
2018-02-07T08:57:32.594Z,74.20
2018-02-07T09:03:02.786Z,73.50
2018-02-07T09:05:33.371Z,72.70
2018-02-07T09:08:09.114Z,73.50
2018-02-07T09:10:52.890Z,71.70
2018-02-07T09:13:28.916Z,73.00
2018-02-07T09:15:59.604Z,72.50
2018-02-07T09:18:31.419Z,74.00
2018-02-07T09:21:04.861Z,73.70
2018-02-07T09:23:36.161Z,75.70
2018-02-07T09:26:08.148Z,73.30
2018-02-07T09:28:40.644Z,72.80
2018-02-07T09:31:12.731Z,72.30
2018-02-07T09:33:46.589Z,72.90
2018-02-07T09:36:20.006Z,72.90
2018-02-07T09:41:53.066Z,71.50
2018-02-07T09:44:26.369Z,70.70
2018-02-07T09:53:09.989Z,72.30
2018-02-07T09:55:45.040Z,72.20
2018-02-07T09:58:17.142Z,72.60
2018-02-07T10:00:51.376Z,73.70
2018-02-07T10:03:23.532Z,73.70
2018-02-07T10:08:53.636Z,73.70
2018-02-07T10:11:27.572Z,73.50
2018-02-07T10:14:02.738Z,73.50
2018-02-07T10:19:33.926Z,74.20
2018-02-07T10:22:23.765Z,73.40
2018-02-07T10:24:59.144Z,72.70
2018-02-07T10:27:31.079Z,72.30
2018-02-07T10:30:03.334Z,72.30
2018-02-07T10:32:41.849Z,72.20
2018-02-07T10:35:16.241Z,71.80
2018-02-07T10:38:02.752Z,71.60
2018-02-07T10:40:59.924Z,72.60
2018-02-07T10:43:36.202Z,72.70
2018-02-07T10:46:23.589Z,71.90
2018-02-07T10:49:10.460Z,71.90
2018-02-07T10:51:45.369Z,71.90
2018-02-07T10:54:28.489Z,71.70
2018-02-07T10:57:05.342Z,71.80
2018-02-07T11:02:26.192Z,71.60
2018-02-07T11:05:03.232Z,72.20
2018-02-07T11:10:54.402Z,71.40
2018-02-07T11:13:33.907Z,71.40
2018-02-07T11:16:09.025Z,71.20
2018-02-07T11:18:42.844Z,71.30
2018-02-07T11:21:30.239Z,70.60
2018-02-07T11:24:32.353Z,70.80
2018-02-07T11:38:56.637Z,71.70
2018-02-07T11:41:49.566Z,70.40
2018-02-07T11:44:25.006Z,70.50
2018-02-07T11:46:59.297Z,71.00
2018-02-07T11:49:31.710Z,71.10
2018-02-07T11:52:06.658Z,71.40
2018-02-07T11:54:37.611Z,70.60
2018-02-07T11:57:09.792Z,70.70
2018-02-07T11:59:41.908Z,70.80
2018-02-07T12:02:27.457Z,71.20
2018-02-07T12:08:35.640Z,70.90
2018-02-07T12:11:22.000Z,70.80
2018-02-07T12:13:59.449Z,70.00
2018-02-07T12:16:30.251Z,70.50
2018-02-07T12:19:01.919Z,69.60
2018-02-07T12:21:34.656Z,70.10
2018-02-07T12:24:13.388Z,70.30
2018-02-07T12:26:46.504Z,70.90
2018-02-07T12:29:20.348Z,70.30
2018-02-07T12:37:54.393Z,70.90
2018-02-07T12:40:27.809Z,70.90
2018-02-07T12:42:59.897Z,70.50
2018-02-07T12:45:34.066Z,70.70
2018-02-07T12:48:06.330Z,70.70
2018-02-07T12:50:50.528Z,70.90
2018-02-07T12:53:34.696Z,71.10
2018-02-07T12:56:05.886Z,71.90
2018-02-07T12:58:37.496Z,71.80
2018-02-07T13:01:12.362Z,70.50
2018-02-07T13:03:52.117Z,70.40
2018-02-07T13:06:23.468Z,70.30
2018-02-07T13:08:56.131Z,70.10
2018-02-07T13:11:29.016Z,70.50
2018-02-07T13:16:45.180Z,70.00
2018-02-07T13:19:17.247Z,70.60
2018-02-07T13:24:52.956Z,71.00
2018-02-07T13:27:28.335Z,71.40
2018-02-07T13:30:09.604Z,70.80
2018-02-07T13:32:44.866Z,70.50
2018-02-07T13:35:20.744Z,70.10
2018-02-07T13:47:57.033Z,70.80
2018-02-07T13:50:29.903Z,72.00
2018-02-07T13:53:00.927Z,72.20
2018-02-07T13:55:32.818Z,72.10
2018-02-07T13:58:07.707Z,72.00
2018-02-07T14:00:42.952Z,71.00
2018-02-07T14:03:29.273Z,71.40
2018-02-07T14:08:59.312Z,71.50
2018-02-07T14:11:30.584Z,71.90
2018-02-07T14:28:51.186Z,73.30
2018-02-07T14:40:59.786Z,72.00
2018-02-07T14:43:39.605Z,71.00
2018-02-07T14:59:02.359Z,71.40
2018-02-07T15:01:48.371Z,71.90
2018-02-07T15:05:00.122Z,71.90
2018-02-07T15:07:31.823Z,72.30
2018-02-07T15:10:09.527Z,71.70
2018-02-07T15:16:03.915Z,70.60
2018-02-07T15:18:34.658Z,70.70
2018-02-07T15:21:07.246Z,69.80
2018-02-07T15:23:38.924Z,70.50
2018-02-07T15:26:11.870Z,70.20
2018-02-07T15:28:43.025Z,70.80
2018-02-07T15:31:14.479Z,70.40
2018-02-07T15:33:46.821Z,71.20
2018-02-07T15:36:35.271Z,71.20
2018-02-07T15:39:20.066Z,71.40
2018-02-07T15:42:10.071Z,70.70
2018-02-07T15:51:11.756Z,70.50
2018-02-07T15:54:06.573Z,70.70
2018-02-07T15:56:42.627Z,71.10
2018-02-07T16:02:49.942Z,70.30
2018-02-07T16:05:24.436Z,70.40
2018-02-07T16:08:11.094Z,70.40
2018-02-07T16:17:06.898Z,70.80
2018-02-07T16:23:09.626Z,71.80
2018-02-07T16:25:42.016Z,71.00
2018-02-07T16:28:14.780Z,71.00
2018-02-07T16:30:46.336Z,70.30
2018-02-07T16:33:44.189Z,69.60
2018-02-07T16:36:15.365Z,71.20
2018-02-07T16:38:47.679Z,71.20
2018-02-07T16:41:18.963Z,71.70
2018-02-07T16:43:50.616Z,71.30
2018-02-07T16:46:47.545Z,71.40
2018-02-07T16:49:18.593Z,71.50
2018-02-07T16:51:48.585Z,71.10
2018-02-07T16:54:20.073Z,70.90
2018-02-07T16:57:03.120Z,69.80
2018-02-07T16:59:34.062Z,69.70
2018-02-07T17:02:32.833Z,69.70
2018-02-07T17:05:42.059Z,69.50
2018-02-07T17:14:26.157Z,70.10
2018-02-07T17:19:49.362Z,70.40
2018-02-07T17:25:21.460Z,70.70
2018-02-07T17:27:55.536Z,70.30
2018-02-07T17:30:30.378Z,69.80
2018-02-07T17:40:03.733Z,70.10
2018-02-07T17:42:50.629Z,69.90
2018-02-07T17:45:30.443Z,69.00
2018-02-07T17:48:01.710Z,69.00
2018-02-07T17:50:38.648Z,69.30
2018-02-07T17:53:08.971Z,69.30
2018-02-07T17:58:49.433Z,69.20
2018-02-07T18:04:41.082Z,68.90
2018-02-07T18:07:23.142Z,68.60
2018-02-07T18:09:54.826Z,67.90
2018-02-07T18:12:25.272Z,67.70
2018-02-07T18:14:57.006Z,68.20
2018-02-07T18:17:28.310Z,67.60
2018-02-07T18:19:58.268Z,67.90
2018-02-07T18:22:41.778Z,67.80
2018-02-07T18:25:27.156Z,67.20
2018-02-07T18:27:57.801Z,67.50
2018-02-07T18:30:28.716Z,67.30
2018-02-07T18:33:10.649Z,67.40
2018-02-07T18:35:53.671Z,67.00
2018-02-07T18:38:26.324Z,67.10
2018-02-07T18:41:02.684Z,66.50
2018-02-07T18:43:35.655Z,65.90
2018-02-07T18:46:05.735Z,66.00
2018-02-07T18:48:39.505Z,66.00
2018-02-07T18:51:35.917Z,65.80
2018-02-07T18:54:08.828Z,65.80
2018-02-07T18:56:39.611Z,65.70
2018-02-07T18:59:09.695Z,65.60
2018-02-07T19:01:52.054Z,65.70
2018-02-07T19:04:23.084Z,65.60
2018-02-07T19:07:06.769Z,65.20
2018-02-07T19:09:37.539Z,65.30
2018-02-07T19:12:07.321Z,65.20
2018-02-07T19:14:42.184Z,65.00
2018-02-07T19:17:13.924Z,65.10
2018-02-07T19:19:43.769Z,65.80
2018-02-07T19:22:27.875Z,64.90
2018-02-07T19:24:58.975Z,64.70
2018-02-07T19:27:28.928Z,64.70
2018-02-07T19:29:59.780Z,64.30
2018-02-07T19:35:15.973Z,64.00
2018-02-07T19:37:46.688Z,63.80
2018-02-07T19:40:18.091Z,62.30
2018-02-07T19:45:35.674Z,63.90
2018-02-07T19:48:06.583Z,63.90
2018-02-07T19:50:38.429Z,63.50
2018-02-07T19:53:08.262Z,65.10
2018-02-07T19:55:38.878Z,63.30
2018-02-07T19:58:09.833Z,61.80
2018-02-07T20:00:40.961Z,63.50
2018-02-07T20:03:24.554Z,64.00
2018-02-07T20:05:56.052Z,63.20
2018-02-07T20:08:27.546Z,63.10
2018-02-07T20:10:57.871Z,62.90
2018-02-07T20:13:32.779Z,62.60
2018-02-07T20:16:05.776Z,62.50
2018-02-07T20:19:01.310Z,63.30
2018-02-07T20:21:32.943Z,62.90
2018-02-07T20:24:03.658Z,62.70
2018-02-07T20:26:35.328Z,62.90
2018-02-07T20:29:35.077Z,62.80
2018-02-07T20:35:17.601Z,62.40
2018-02-07T20:37:55.333Z,62.50
2018-02-07T20:40:26.069Z,62.40
2018-02-07T20:43:09.773Z,62.40
2018-02-07T20:45:41.644Z,62.40
2018-02-07T20:51:24.404Z,62.10
2018-02-07T21:16:30.302Z,61.80
2018-02-07T21:19:01.561Z,61.70
2018-02-07T21:21:31.628Z,61.30
2018-02-07T21:24:03.676Z,61.30
2018-02-07T21:26:33.821Z,61.60
2018-02-07T21:29:04.632Z,61.60
2018-02-07T21:31:36.231Z,61.60
2018-02-07T21:34:06.855Z,61.40
2018-02-07T21:36:38.835Z,61.30
2018-02-07T21:42:05.217Z,61.20
2018-02-07T21:44:35.917Z,60.70
2018-02-07T21:47:05.991Z,60.90
2018-02-07T21:49:36.012Z,60.80
2018-02-07T21:52:18.596Z,60.60
2018-02-07T21:54:50.682Z,61.20
2018-02-07T21:57:22.131Z,60.70
2018-02-07T21:59:52.157Z,60.60
2018-02-07T22:02:23.756Z,60.50
2018-02-07T22:04:55.789Z,60.10
2018-02-07T22:07:26.905Z,59.80
2018-02-07T22:09:58.818Z,60.20
2018-02-07T22:12:28.786Z,59.80
2018-02-07T22:14:59.120Z,59.40
2018-02-07T22:17:29.463Z,59.70
2018-02-07T22:20:00.374Z,59.60
2018-02-07T22:22:32.279Z,59.60
2018-02-07T22:25:02.256Z,59.30
2018-02-07T22:27:34.088Z,59.60
2018-02-07T22:30:03.962Z,59.60
2018-02-07T22:32:34.749Z,59.80
2018-02-07T22:37:47.291Z,60.00
2018-02-07T22:40:19.750Z,60.00
2018-02-07T22:42:49.787Z,59.80
2018-02-07T22:45:20.168Z,59.70
2018-02-07T22:47:50.031Z,59.80
2018-02-07T22:50:19.931Z,59.70
2018-02-07T22:52:49.962Z,59.40
2018-02-07T22:55:21.794Z,59.40
2018-02-07T22:57:51.701Z,59.10
2018-02-07T23:00:21.732Z,59.40
2018-02-07T23:02:51.581Z,59.50
2018-02-07T23:05:22.391Z,59.20
2018-02-07T23:07:52.436Z,59.40
2018-02-07T23:10:23.522Z,59.20
2018-02-07T23:12:53.317Z,59.20
2018-02-07T23:15:23.198Z,59.30
2018-02-07T23:17:56.114Z,59.20
2018-02-07T23:20:26.132Z,59.20
2018-02-07T23:22:56.661Z,59.00
2018-02-07T23:25:26.872Z,58.50
2018-02-07T23:27:57.454Z,58.60
2018-02-07T23:30:28.369Z,58.60
2018-02-07T23:32:58.466Z,58.40
2018-02-07T23:35:32.946Z,58.60
2018-02-07T23:38:03.379Z,58.70
2018-02-07T23:40:33.812Z,59.00
2018-02-07T23:43:03.733Z,58.90
2018-02-07T23:45:33.915Z,58.60
2018-02-07T23:48:04.120Z,58.50
2018-02-07T23:50:34.057Z,58.40
2018-02-07T23:53:04.381Z,58.50
2018-02-07T23:55:34.396Z,58.10
2018-02-07T23:58:04.336Z,58.50
